sensor_id;sensor_type;location;lat;lon;timestamp;P1;durP1;ratioP1;P2;durP2;ratioP2
61640;SDS011;62201;49.966;8.342;2022-11-15T00:01:19;34.43;;;23.30;;
61640;SDS011;62201;49.966;8.342;2022-11-15T00:03:45;43.57;;;24.87;;
61640;SDS011;62201;49.966;8.342;2022-11-15T00:06:11;37.23;;;24.37;;
61640;SDS011;62201;49.966;8.342;2022-11-15T00:08:36;39.97;;;23.80;;
61640;SDS011;62201;49.966;8.342;2022-11-15T00:11:02;36.43;;;22.40;;
61640;SDS011;62201;49.966;8.342;2022-11-15T00:13:28;31.07;;;22.33;;
61640;SDS011;62201;49.966;8.342;2022-11-15T00:15:59;37.17;;;24.40;;
61640;SDS011;62201;49.966;8.342;2022-11-15T00:18:25;34.07;;;22.63;;
61640;SDS011;62201;49.966;8.342;2022-11-15T00:20:50;36.03;;;23.10;;
61640;SDS011;62201;49.966;8.342;2022-11-15T00:23:16;36.57;;;22.47;;
61640;SDS011;62201;49.966;8.342;2022-11-15T00:25:41;33.30;;;22.53;;
61640;SDS011;62201;49.966;8.342;2022-11-15T00:28:07;29.77;;;19.93;;
61640;SDS011;62201;49.966;8.342;2022-11-15T00:30:32;29.20;;;19.80;;
61640;SDS011;62201;49.966;8.342;2022-11-15T00:33:04;27.23;;;18.13;;
61640;SDS011;62201;49.966;8.342;2022-11-15T00:35:33;28.15;;;18.40;;
61640;SDS011;62201;49.966;8.342;2022-11-15T00:38:00;24.60;;;17.87;;
61640;SDS011;62201;49.966;8.342;2022-11-15T00:40:26;32.13;;;18.70;;
61640;SDS011;62201;49.966;8.342;2022-11-15T00:42:52;26.35;;;18.00;;
61640;SDS011;62201;49.966;8.342;2022-11-15T00:45:17;28.93;;;17.67;;
61640;SDS011;62201;49.966;8.342;2022-11-15T00:47:45;27.10;;;17.50;;
61640;SDS011;62201;49.966;8.342;2022-11-15T00:50:11;29.13;;;18.10;;
61640;SDS011;62201;49.966;8.342;2022-11-15T00:52:37;25.77;;;17.50;;
61640;SDS011;62201;49.966;8.342;2022-11-15T00:55:02;26.33;;;18.03;;
61640;SDS011;62201;49.966;8.342;2022-11-15T00:57:28;22.17;;;16.63;;
61640;SDS011;62201;49.966;8.342;2022-11-15T00:59:53;25.07;;;16.60;;
61640;SDS011;62201;49.966;8.342;2022-11-15T01:02:19;27.97;;;18.13;;
61640;SDS011;62201;49.966;8.342;2022-11-15T01:04:44;28.83;;;18.63;;
61640;SDS011;62201;49.966;8.342;2022-11-15T01:07:10;28.77;;;18.10;;
61640;SDS011;62201;49.966;8.342;2022-11-15T01:09:35;25.73;;;17.53;;
61640;SDS011;62201;49.966;8.342;2022-11-15T01:12:00;26.57;;;17.47;;
61640;SDS011;62201;49.966;8.342;2022-11-15T01:14:26;24.33;;;17.30;;
61640;SDS011;62201;49.966;8.342;2022-11-15T01:16:51;27.20;;;17.63;;
61640;SDS011;62201;49.966;8.342;2022-11-15T01:19:16;24.77;;;18.00;;
61640;SDS011;62201;49.966;8.342;2022-11-15T01:21:42;27.70;;;18.00;;
61640;SDS011;62201;49.966;8.342;2022-11-15T01:24:07;26.83;;;17.73;;
61640;SDS011;62201;49.966;8.342;2022-11-15T01:26:37;30.60;;;19.20;;
61640;SDS011;62201;49.966;8.342;2022-11-15T01:29:02;27.23;;;17.77;;
61640;SDS011;62201;49.966;8.342;2022-11-15T01:31:28;29.50;;;16.53;;
61640;SDS011;62201;49.966;8.342;2022-11-15T01:33:53;27.40;;;16.83;;
61640;SDS011;62201;49.966;8.342;2022-11-15T01:36:19;24.33;;;16.67;;
61640;SDS011;62201;49.966;8.342;2022-11-15T01:38:55;24.47;;;16.77;;
61640;SDS011;62201;49.966;8.342;2022-11-15T01:41:23;27.03;;;17.50;;
61640;SDS011;62201;49.966;8.342;2022-11-15T01:43:54;25.70;;;18.13;;
61640;SDS011;62201;49.966;8.342;2022-11-15T01:46:29;22.70;;;16.30;;
61640;SDS011;62201;49.966;8.342;2022-11-15T01:48:59;24.67;;;16.80;;
61640;SDS011;62201;49.966;8.342;2022-11-15T01:51:29;29.53;;;16.77;;
61640;SDS011;62201;49.966;8.342;2022-11-15T01:53:57;24.23;;;16.50;;
61640;SDS011;62201;49.966;8.342;2022-11-15T01:56:29;22.52;;;16.30;;
61640;SDS011;62201;49.966;8.342;2022-11-15T01:58:58;25.40;;;16.80;;
61640;SDS011;62201;49.966;8.342;2022-11-15T02:01:27;24.93;;;16.53;;
61640;SDS011;62201;49.966;8.342;2022-11-15T02:03:59;24.13;;;15.80;;
61640;SDS011;62201;49.966;8.342;2022-11-15T02:06:28;25.50;;;17.17;;
61640;SDS011;62201;49.966;8.342;2022-11-15T02:08:54;29.58;;;17.48;;
61640;SDS011;62201;49.966;8.342;2022-11-15T02:11:21;26.63;;;16.70;;
61640;SDS011;62201;49.966;8.342;2022-11-15T02:13:46;26.27;;;16.70;;
61640;SDS011;62201;49.966;8.342;2022-11-15T02:18:50;24.17;;;16.27;;
61640;SDS011;62201;49.966;8.342;2022-11-15T02:32:34;25.37;;;16.43;;
61640;SDS011;62201;49.966;8.342;2022-11-15T02:37:57;24.20;;;15.50;;
61640;SDS011;62201;49.966;8.342;2022-11-15T02:40:31;28.40;;;16.10;;
61640;SDS011;62201;49.966;8.342;2022-11-15T02:43:10;23.47;;;14.10;;
61640;SDS011;62201;49.966;8.342;2022-11-15T02:48:42;21.60;;;14.33;;
61640;SDS011;62201;49.966;8.342;2022-11-15T02:51:08;25.60;;;15.73;;
61640;SDS011;62201;49.966;8.342;2022-11-15T02:53:35;22.63;;;14.77;;
61640;SDS011;62201;49.966;8.342;2022-11-15T02:56:00;23.13;;;15.87;;
61640;SDS011;62201;49.966;8.342;2022-11-15T03:03:40;24.17;;;16.50;;
61640;SDS011;62201;49.966;8.342;2022-11-15T03:11:39;26.63;;;15.60;;
61640;SDS011;62201;49.966;8.342;2022-11-15T03:14:29;22.37;;;14.80;;
61640;SDS011;62201;49.966;8.342;2022-11-15T03:19:45;18.23;;;13.13;;
61640;SDS011;62201;49.966;8.342;2022-11-15T03:22:15;21.00;;;13.43;;
61640;SDS011;62201;49.966;8.342;2022-11-15T03:24:43;18.37;;;12.97;;
61640;SDS011;62201;49.966;8.342;2022-11-15T03:27:12;20.23;;;12.73;;
61640;SDS011;62201;49.966;8.342;2022-11-15T03:29:44;15.70;;;11.85;;
61640;SDS011;62201;49.966;8.342;2022-11-15T03:32:17;20.23;;;12.07;;
61640;SDS011;62201;49.966;8.342;2022-11-15T03:37:22;17.13;;;11.18;;
61640;SDS011;62201;49.966;8.342;2022-11-15T03:39:54;16.08;;;11.43;;
61640;SDS011;62201;49.966;8.342;2022-11-15T03:42:27;17.02;;;11.25;;
61640;SDS011;62201;49.966;8.342;2022-11-15T03:50:04;17.70;;;11.10;;
61640;SDS011;62201;49.966;8.342;2022-11-15T03:52:35;16.63;;;10.50;;
61640;SDS011;62201;49.966;8.342;2022-11-15T03:55:01;15.88;;;10.80;;
61640;SDS011;62201;49.966;8.342;2022-11-15T03:57:28;12.18;;;10.15;;
61640;SDS011;62201;49.966;8.342;2022-11-15T03:59:53;14.57;;;9.90;;
61640;SDS011;62201;49.966;8.342;2022-11-15T04:02:19;17.85;;;10.07;;
61640;SDS011;62201;49.966;8.342;2022-11-15T04:04:44;17.20;;;10.52;;
61640;SDS011;62201;49.966;8.342;2022-11-15T04:07:10;15.93;;;11.38;;
61640;SDS011;62201;49.966;8.342;2022-11-15T04:09:35;14.95;;;10.75;;
61640;SDS011;62201;49.966;8.342;2022-11-15T04:12:20;13.83;;;9.03;;
61640;SDS011;62201;49.966;8.342;2022-11-15T04:14:55;11.55;;;8.57;;
61640;SDS011;62201;49.966;8.342;2022-11-15T04:20:04;12.38;;;7.93;;
61640;SDS011;62201;49.966;8.342;2022-11-15T04:22:51;11.35;;;6.95;;
61640;SDS011;62201;49.966;8.342;2022-11-15T04:25:36;12.30;;;7.80;;
61640;SDS011;62201;49.966;8.342;2022-11-15T04:28:01;11.70;;;7.18;;
61640;SDS011;62201;49.966;8.342;2022-11-15T04:30:27;9.38;;;7.13;;
61640;SDS011;62201;49.966;8.342;2022-11-15T04:32:52;9.68;;;7.13;;
61640;SDS011;62201;49.966;8.342;2022-11-15T04:35:17;10.07;;;6.90;;
61640;SDS011;62201;49.966;8.342;2022-11-15T04:37:43;12.88;;;7.60;;
61640;SDS011;62201;49.966;8.342;2022-11-15T04:40:08;8.63;;;6.90;;
61640;SDS011;62201;49.966;8.342;2022-11-15T04:42:34;9.63;;;6.35;;
61640;SDS011;62201;49.966;8.342;2022-11-15T04:44:59;9.13;;;6.78;;
61640;SDS011;62201;49.966;8.342;2022-11-15T04:47:24;12.80;;;7.65;;
61640;SDS011;62201;49.966;8.342;2022-11-15T04:49:50;14.00;;;6.72;;
61640;SDS011;62201;49.966;8.342;2022-11-15T04:52:15;13.75;;;7.95;;
61640;SDS011;62201;49.966;8.342;2022-11-15T04:54:40;11.40;;;7.20;;
61640;SDS011;62201;49.966;8.342;2022-11-15T04:57:07;10.27;;;7.53;;
61640;SDS011;62201;49.966;8.342;2022-11-15T04:59:33;9.05;;;6.97;;
61640;SDS011;62201;49.966;8.342;2022-11-15T05:01:58;10.48;;;6.85;;
61640;SDS011;62201;49.966;8.342;2022-11-15T05:04:24;10.52;;;6.63;;
61640;SDS011;62201;49.966;8.342;2022-11-15T05:06:50;14.10;;;6.95;;
61640;SDS011;62201;49.966;8.342;2022-11-15T05:09:17;9.60;;;6.53;;
61640;SDS011;62201;49.966;8.342;2022-11-15T05:11:43;11.15;;;6.78;;
61640;SDS011;62201;49.966;8.342;2022-11-15T05:14:09;11.45;;;7.03;;
61640;SDS011;62201;49.966;8.342;2022-11-15T05:16:35;10.45;;;8.00;;
61640;SDS011;62201;49.966;8.342;2022-11-15T05:19:01;14.10;;;7.60;;
61640;SDS011;62201;49.966;8.342;2022-11-15T05:21:27;12.35;;;7.40;;
61640;SDS011;62201;49.966;8.342;2022-11-15T05:23:52;12.05;;;7.00;;
61640;SDS011;62201;49.966;8.342;2022-11-15T05:26:18;13.63;;;7.93;;
61640;SDS011;62201;49.966;8.342;2022-11-15T05:28:43;10.75;;;7.82;;
61640;SDS011;62201;49.966;8.342;2022-11-15T05:31:12;14.32;;;7.68;;
61640;SDS011;62201;49.966;8.342;2022-11-15T05:33:39;13.93;;;8.77;;
61640;SDS011;62201;49.966;8.342;2022-11-15T05:38:31;14.00;;;8.68;;
61640;SDS011;62201;49.966;8.342;2022-11-15T05:40:58;11.98;;;8.00;;
61640;SDS011;62201;49.966;8.342;2022-11-15T05:43:25;13.35;;;8.43;;
61640;SDS011;62201;49.966;8.342;2022-11-15T05:45:50;12.20;;;8.90;;
61640;SDS011;62201;49.966;8.342;2022-11-15T05:48:16;13.55;;;7.65;;
61640;SDS011;62201;49.966;8.342;2022-11-15T05:50:42;11.38;;;7.18;;
61640;SDS011;62201;49.966;8.342;2022-11-15T05:53:11;10.50;;;6.70;;
61640;SDS011;62201;49.966;8.342;2022-11-15T05:55:39;10.68;;;6.18;;
61640;SDS011;62201;49.966;8.342;2022-11-15T05:58:06;14.43;;;5.97;;
61640;SDS011;62201;49.966;8.342;2022-11-15T06:00:31;11.18;;;5.22;;
61640;SDS011;62201;49.966;8.342;2022-11-15T06:02:57;9.93;;;6.13;;
61640;SDS011;62201;49.966;8.342;2022-11-15T06:05:22;9.98;;;6.47;;
61640;SDS011;62201;49.966;8.342;2022-11-15T06:07:48;9.48;;;6.65;;
61640;SDS011;62201;49.966;8.342;2022-11-15T06:10:13;8.57;;;6.03;;
61640;SDS011;62201;49.966;8.342;2022-11-15T06:12:38;9.90;;;6.53;;
61640;SDS011;62201;49.966;8.342;2022-11-15T06:15:04;9.57;;;6.35;;
61640;SDS011;62201;49.966;8.342;2022-11-15T06:17:29;10.30;;;6.68;;
61640;SDS011;62201;49.966;8.342;2022-11-15T06:19:55;13.75;;;6.65;;
61640;SDS011;62201;49.966;8.342;2022-11-15T06:22:20;12.63;;;6.95;;
61640;SDS011;62201;49.966;8.342;2022-11-15T06:24:45;14.10;;;7.53;;
61640;SDS011;62201;49.966;8.342;2022-11-15T06:27:11;13.25;;;7.75;;
61640;SDS011;62201;49.966;8.342;2022-11-15T06:29:37;11.07;;;6.28;;
61640;SDS011;62201;49.966;8.342;2022-11-15T06:32:02;8.60;;;6.38;;
61640;SDS011;62201;49.966;8.342;2022-11-15T06:34:28;13.85;;;7.22;;
61640;SDS011;62201;49.966;8.342;2022-11-15T06:36:53;11.13;;;7.40;;
61640;SDS011;62201;49.966;8.342;2022-11-15T06:39:19;11.75;;;6.95;;
61640;SDS011;62201;49.966;8.342;2022-11-15T06:41:44;9.80;;;6.90;;
61640;SDS011;62201;49.966;8.342;2022-11-15T06:44:09;11.95;;;7.25;;
61640;SDS011;62201;49.966;8.342;2022-11-15T06:46:35;13.40;;;11.10;;
61640;SDS011;62201;49.966;8.342;2022-11-15T06:49:00;16.65;;;10.45;;
61640;SDS011;62201;49.966;8.342;2022-11-15T06:51:26;16.05;;;10.30;;
61640;SDS011;62201;49.966;8.342;2022-11-15T06:53:51;14.55;;;9.27;;
61640;SDS011;62201;49.966;8.342;2022-11-15T06:56:16;16.20;;;8.73;;
61640;SDS011;62201;49.966;8.342;2022-11-15T06:58:42;13.00;;;8.25;;
61640;SDS011;62201;49.966;8.342;2022-11-15T07:01:08;11.57;;;7.78;;
61640;SDS011;62201;49.966;8.342;2022-11-15T07:03:39;11.10;;;7.65;;
61640;SDS011;62201;49.966;8.342;2022-11-15T07:06:06;10.70;;;7.60;;
61640;SDS011;62201;49.966;8.342;2022-11-15T07:08:32;11.23;;;7.70;;
61640;SDS011;62201;49.966;8.342;2022-11-15T07:10:58;16.25;;;8.50;;
61640;SDS011;62201;49.966;8.342;2022-11-15T07:13:26;15.23;;;8.57;;
61640;SDS011;62201;49.966;8.342;2022-11-15T07:15:53;14.80;;;7.70;;
61640;SDS011;62201;49.966;8.342;2022-11-15T07:18:18;12.77;;;7.70;;
61640;SDS011;62201;49.966;8.342;2022-11-15T07:20:44;12.55;;;7.38;;
61640;SDS011;62201;49.966;8.342;2022-11-15T07:23:09;16.38;;;7.97;;
61640;SDS011;62201;49.966;8.342;2022-11-15T07:25:35;13.30;;;7.72;;
61640;SDS011;62201;49.966;8.342;2022-11-15T07:28:00;13.50;;;6.93;;
61640;SDS011;62201;49.966;8.342;2022-11-15T07:30:26;10.48;;;6.75;;
61640;SDS011;62201;49.966;8.342;2022-11-15T07:32:58;9.20;;;6.30;;
61640;SDS011;62201;49.966;8.342;2022-11-15T07:35:26;10.13;;;5.80;;
61640;SDS011;62201;49.966;8.342;2022-11-15T07:37:58;11.38;;;6.32;;
61640;SDS011;62201;49.966;8.342;2022-11-15T07:40:26;11.40;;;5.93;;
61640;SDS011;62201;49.966;8.342;2022-11-15T07:42:52;10.65;;;6.20;;
61640;SDS011;62201;49.966;8.342;2022-11-15T07:45:24;14.75;;;6.35;;
61640;SDS011;62201;49.966;8.342;2022-11-15T07:47:51;10.70;;;5.88;;
61640;SDS011;62201;49.966;8.342;2022-11-15T07:50:17;10.70;;;6.05;;
61640;SDS011;62201;49.966;8.342;2022-11-15T07:52:43;9.43;;;6.30;;
61640;SDS011;62201;49.966;8.342;2022-11-15T07:55:09;8.15;;;5.93;;
61640;SDS011;62201;49.966;8.342;2022-11-15T07:57:34;9.75;;;6.35;;
61640;SDS011;62201;49.966;8.342;2022-11-15T08:00:00;12.68;;;6.60;;
61640;SDS011;62201;49.966;8.342;2022-11-15T08:02:26;10.38;;;8.25;;
61640;SDS011;62201;49.966;8.342;2022-11-15T08:04:51;18.15;;;8.10;;
61640;SDS011;62201;49.966;8.342;2022-11-15T08:07:16;12.30;;;8.73;;
61640;SDS011;62201;49.966;8.342;2022-11-15T08:09:42;16.48;;;9.20;;
61640;SDS011;62201;49.966;8.342;2022-11-15T08:12:07;11.90;;;7.80;;
61640;SDS011;62201;49.966;8.342;2022-11-15T08:14:32;9.18;;;7.05;;
61640;SDS011;62201;49.966;8.342;2022-11-15T08:16:59;12.77;;;8.00;;
61640;SDS011;62201;49.966;8.342;2022-11-15T08:19:25;16.55;;;7.95;;
61640;SDS011;62201;49.966;8.342;2022-11-15T08:21:50;10.77;;;7.50;;
61640;SDS011;62201;49.966;8.342;2022-11-15T08:24:15;13.07;;;6.82;;
61640;SDS011;62201;49.966;8.342;2022-11-15T08:26:41;13.48;;;6.78;;
61640;SDS011;62201;49.966;8.342;2022-11-15T08:29:07;12.00;;;6.50;;
61640;SDS011;62201;49.966;8.342;2022-11-15T08:31:33;9.38;;;7.03;;
61640;SDS011;62201;49.966;8.342;2022-11-15T08:34:00;10.70;;;7.00;;
61640;SDS011;62201;49.966;8.342;2022-11-15T08:36:25;12.52;;;7.32;;
61640;SDS011;62201;49.966;8.342;2022-11-15T08:38:51;11.25;;;7.85;;
61640;SDS011;62201;49.966;8.342;2022-11-15T08:41:19;14.85;;;8.13;;
61640;SDS011;62201;49.966;8.342;2022-11-15T08:43:51;14.80;;;9.45;;
61640;SDS011;62201;49.966;8.342;2022-11-15T08:46:16;14.13;;;9.02;;
61640;SDS011;62201;49.966;8.342;2022-11-15T08:48:43;9.93;;;6.90;;
61640;SDS011;62201;49.966;8.342;2022-11-15T08:51:08;11.02;;;6.80;;
61640;SDS011;62201;49.966;8.342;2022-11-15T08:53:33;10.13;;;7.50;;
61640;SDS011;62201;49.966;8.342;2022-11-15T08:55:59;12.73;;;9.48;;
61640;SDS011;62201;49.966;8.342;2022-11-15T08:58:25;14.93;;;9.35;;
61640;SDS011;62201;49.966;8.342;2022-11-15T09:00:50;14.13;;;9.30;;
61640;SDS011;62201;49.966;8.342;2022-11-15T09:03:15;11.00;;;8.55;;
61640;SDS011;62201;49.966;8.342;2022-11-15T09:05:41;12.85;;;8.75;;
61640;SDS011;62201;49.966;8.342;2022-11-15T09:08:07;14.30;;;9.18;;
61640;SDS011;62201;49.966;8.342;2022-11-15T09:10:32;13.40;;;8.23;;
61640;SDS011;62201;49.966;8.342;2022-11-15T09:12:58;11.57;;;8.40;;
61640;SDS011;62201;49.966;8.342;2022-11-15T09:15:23;13.98;;;7.18;;
61640;SDS011;62201;49.966;8.342;2022-11-15T09:17:48;9.05;;;6.65;;
61640;SDS011;62201;49.966;8.342;2022-11-15T09:20:14;12.20;;;6.40;;
61640;SDS011;62201;49.966;8.342;2022-11-15T09:22:40;9.05;;;6.63;;
61640;SDS011;62201;49.966;8.342;2022-11-15T09:25:05;10.07;;;6.63;;
61640;SDS011;62201;49.966;8.342;2022-11-15T09:27:31;14.27;;;7.35;;
61640;SDS011;62201;49.966;8.342;2022-11-15T09:29:57;12.18;;;7.32;;
61640;SDS011;62201;49.966;8.342;2022-11-15T09:32:22;11.80;;;6.57;;
61640;SDS011;62201;49.966;8.342;2022-11-15T09:34:49;9.07;;;6.13;;
61640;SDS011;62201;49.966;8.342;2022-11-15T09:37:15;9.43;;;6.70;;
61640;SDS011;62201;49.966;8.342;2022-11-15T09:39:40;11.20;;;6.80;;
61640;SDS011;62201;49.966;8.342;2022-11-15T09:42:24;10.05;;;6.68;;
61640;SDS011;62201;49.966;8.342;2022-11-15T09:45:18;14.15;;;7.75;;
61640;SDS011;62201;49.966;8.342;2022-11-15T09:48:10;13.70;;;7.25;;
61640;SDS011;62201;49.966;8.342;2022-11-15T09:50:48;11.57;;;7.10;;
61640;SDS011;62201;49.966;8.342;2022-11-15T09:53:25;12.70;;;7.85;;
61640;SDS011;62201;49.966;8.342;2022-11-15T09:56:03;9.80;;;7.78;;
61640;SDS011;62201;49.966;8.342;2022-11-15T10:04:43;12.75;;;7.80;;
61640;SDS011;62201;49.966;8.342;2022-11-15T10:12:34;13.18;;;7.78;;
61640;SDS011;62201;49.966;8.342;2022-11-15T10:15:00;12.88;;;7.68;;
61640;SDS011;62201;49.966;8.342;2022-11-15T10:20:11;15.25;;;6.97;;
61640;SDS011;62201;49.966;8.342;2022-11-15T10:23:10;13.00;;;7.25;;
61640;SDS011;62201;49.966;8.342;2022-11-15T10:25:35;9.82;;;6.65;;
61640;SDS011;62201;49.966;8.342;2022-11-15T10:31:02;11.90;;;7.28;;
61640;SDS011;62201;49.966;8.342;2022-11-15T10:33:31;11.55;;;7.97;;
61640;SDS011;62201;49.966;8.342;2022-11-15T10:38:33;10.15;;;6.55;;
61640;SDS011;62201;49.966;8.342;2022-11-15T10:41:35;11.50;;;6.85;;
61640;SDS011;62201;49.966;8.342;2022-11-15T10:46:43;8.88;;;6.60;;
61640;SDS011;62201;49.966;8.342;2022-11-15T10:49:18;12.43;;;7.28;;
61640;SDS011;62201;49.966;8.342;2022-11-15T10:51:48;10.63;;;7.57;;
61640;SDS011;62201;49.966;8.342;2022-11-15T10:54:21;13.15;;;7.35;;
61640;SDS011;62201;49.966;8.342;2022-11-15T10:56:51;12.35;;;6.97;;
61640;SDS011;62201;49.966;8.342;2022-11-15T10:59:24;14.10;;;7.03;;
61640;SDS011;62201;49.966;8.342;2022-11-15T11:01:53;11.40;;;7.57;;
61640;SDS011;62201;49.966;8.342;2022-11-15T11:04:19;12.60;;;6.65;;
61640;SDS011;62201;49.966;8.342;2022-11-15T11:06:48;13.27;;;6.72;;
61640;SDS011;62201;49.966;8.342;2022-11-15T11:12:03;9.25;;;6.32;;
61640;SDS011;62201;49.966;8.342;2022-11-15T11:14:31;9.88;;;6.10;;
61640;SDS011;62201;49.966;8.342;2022-11-15T11:19:54;9.38;;;5.88;;
61640;SDS011;62201;49.966;8.342;2022-11-15T11:22:38;11.15;;;6.57;;
61640;SDS011;62201;49.966;8.342;2022-11-15T11:25:56;8.32;;;6.25;;
61640;SDS011;62201;49.966;8.342;2022-11-15T11:31:14;15.30;;;6.10;;
61640;SDS011;62201;49.966;8.342;2022-11-15T11:33:50;10.38;;;6.10;;
61640;SDS011;62201;49.966;8.342;2022-11-15T11:44:37;10.93;;;5.70;;
61640;SDS011;62201;49.966;8.342;2022-11-15T11:47:24;8.68;;;6.25;;
61640;SDS011;62201;49.966;8.342;2022-11-15T11:55:23;13.27;;;5.82;;
61640;SDS011;62201;49.966;8.342;2022-11-15T12:00:55;11.65;;;6.10;;
61640;SDS011;62201;49.966;8.342;2022-11-15T12:06:06;8.40;;;5.30;;
61640;SDS011;62201;49.966;8.342;2022-11-15T12:08:47;10.90;;;5.93;;
61640;SDS011;62201;49.966;8.342;2022-11-15T12:11:28;9.18;;;5.82;;
61640;SDS011;62201;49.966;8.342;2022-11-15T12:14:01;11.65;;;5.63;;
61640;SDS011;62201;49.966;8.342;2022-11-15T12:16:29;12.95;;;5.45;;
61640;SDS011;62201;49.966;8.342;2022-11-15T12:19:01;10.18;;;5.15;;
61640;SDS011;62201;49.966;8.342;2022-11-15T12:22:04;10.70;;;5.13;;
61640;SDS011;62201;49.966;8.342;2022-11-15T12:24:43;7.13;;;4.72;;
61640;SDS011;62201;49.966;8.342;2022-11-15T12:30:04;11.48;;;5.18;;
61640;SDS011;62201;49.966;8.342;2022-11-15T12:32:39;9.02;;;4.75;;
61640;SDS011;62201;49.966;8.342;2022-11-15T12:38:09;8.15;;;5.00;;
61640;SDS011;62201;49.966;8.342;2022-11-15T12:40:36;10.07;;;4.60;;
61640;SDS011;62201;49.966;8.342;2022-11-15T12:45:41;8.45;;;4.75;;
61640;SDS011;62201;49.966;8.342;2022-11-15T12:51:01;7.78;;;4.75;;
61640;SDS011;62201;49.966;8.342;2022-11-15T12:53:28;8.25;;;4.78;;
61640;SDS011;62201;49.966;8.342;2022-11-15T13:06:41;7.78;;;5.10;;
61640;SDS011;62201;49.966;8.342;2022-11-15T13:11:57;10.85;;;6.13;;
61640;SDS011;62201;49.966;8.342;2022-11-15T13:17:01;8.52;;;5.72;;
61640;SDS011;62201;49.966;8.342;2022-11-15T13:19:35;8.27;;;4.80;;
61640;SDS011;62201;49.966;8.342;2022-11-15T13:22:04;7.40;;;4.88;;
61640;SDS011;62201;49.966;8.342;2022-11-15T13:24:48;8.13;;;4.68;;
61640;SDS011;62201;49.966;8.342;2022-11-15T13:27:18;8.88;;;5.25;;
61640;SDS011;62201;49.966;8.342;2022-11-15T13:29:44;8.18;;;4.72;;
61640;SDS011;62201;49.966;8.342;2022-11-15T13:32:13;11.50;;;5.25;;
61640;SDS011;62201;49.966;8.342;2022-11-15T13:34:43;12.43;;;5.13;;
61640;SDS011;62201;49.966;8.342;2022-11-15T13:37:16;12.48;;;5.30;;
61640;SDS011;62201;49.966;8.342;2022-11-15T13:39:54;9.32;;;4.72;;
61640;SDS011;62201;49.966;8.342;2022-11-15T13:42:34;7.68;;;4.85;;
61640;SDS011;62201;49.966;8.342;2022-11-15T13:45:00;10.85;;;4.60;;
61640;SDS011;62201;49.966;8.342;2022-11-15T13:47:28;7.43;;;4.38;;
61640;SDS011;62201;49.966;8.342;2022-11-15T13:49:58;13.23;;;4.82;;
61640;SDS011;62201;49.966;8.342;2022-11-15T13:52:31;8.30;;;4.47;;
61640;SDS011;62201;49.966;8.342;2022-11-15T13:55:05;10.45;;;4.28;;
61640;SDS011;62201;49.966;8.342;2022-11-15T14:00:26;10.60;;;4.53;;
61640;SDS011;62201;49.966;8.342;2022-11-15T14:03:04;8.45;;;4.78;;
61640;SDS011;62201;49.966;8.342;2022-11-15T14:05:46;8.90;;;5.03;;
61640;SDS011;62201;49.966;8.342;2022-11-15T14:08:38;11.20;;;5.55;;
61640;SDS011;62201;49.966;8.342;2022-11-15T14:11:05;8.95;;;5.32;;
61640;SDS011;62201;49.966;8.342;2022-11-15T14:16:38;10.77;;;5.10;;
61640;SDS011;62201;49.966;8.342;2022-11-15T14:19:09;11.70;;;5.93;;
61640;SDS011;62201;49.966;8.342;2022-11-15T14:21:37;8.80;;;5.95;;
61640;SDS011;62201;49.966;8.342;2022-11-15T14:24:22;8.13;;;5.25;;
61640;SDS011;62201;49.966;8.342;2022-11-15T14:26:56;8.63;;;6.55;;
61640;SDS011;62201;49.966;8.342;2022-11-15T14:29:22;15.05;;;5.55;;
61640;SDS011;62201;49.966;8.342;2022-11-15T14:31:51;9.45;;;6.07;;
61640;SDS011;62201;49.966;8.342;2022-11-15T14:34:17;11.10;;;5.70;;
61640;SDS011;62201;49.966;8.342;2022-11-15T14:36:43;9.10;;;6.50;;
61640;SDS011;62201;49.966;8.342;2022-11-15T14:39:08;9.15;;;7.07;;
61640;SDS011;62201;49.966;8.342;2022-11-15T14:41:35;13.07;;;8.18;;
61640;SDS011;62201;49.966;8.342;2022-11-15T14:44:04;19.02;;;12.18;;
61640;SDS011;62201;49.966;8.342;2022-11-15T14:46:31;13.80;;;8.85;;
61640;SDS011;62201;49.966;8.342;2022-11-15T14:48:56;30.00;;;14.68;;
61640;SDS011;62201;49.966;8.342;2022-11-15T14:51:22;25.33;;;13.25;;
61640;SDS011;62201;49.966;8.342;2022-11-15T14:53:47;36.75;;;14.77;;
61640;SDS011;62201;49.966;8.342;2022-11-15T14:56:13;25.23;;;12.02;;
61640;SDS011;62201;49.966;8.342;2022-11-15T14:58:39;33.97;;;14.27;;
61640;SDS011;62201;49.966;8.342;2022-11-15T15:01:19;42.25;;;16.73;;
61640;SDS011;62201;49.966;8.342;2022-11-15T15:03:46;19.30;;;9.45;;
61640;SDS011;62201;49.966;8.342;2022-11-15T15:06:12;13.05;;;7.20;;
61640;SDS011;62201;49.966;8.342;2022-11-15T15:08:39;16.98;;;7.93;;
61640;SDS011;62201;49.966;8.342;2022-11-15T15:11:13;11.98;;;6.57;;
61640;SDS011;62201;49.966;8.342;2022-11-15T15:13:40;10.25;;;4.88;;
61640;SDS011;62201;49.966;8.342;2022-11-15T15:16:06;10.15;;;4.32;;
61640;SDS011;62201;49.966;8.342;2022-11-15T15:18:31;9.80;;;3.85;;
61640;SDS011;62201;49.966;8.342;2022-11-15T15:20:58;5.70;;;3.67;;
61640;SDS011;62201;49.966;8.342;2022-11-15T15:23:32;6.78;;;3.75;;
61640;SDS011;62201;49.966;8.342;2022-11-15T15:25:58;7.00;;;3.90;;
61640;SDS011;62201;49.966;8.342;2022-11-15T15:28:24;8.30;;;4.32;;
61640;SDS011;62201;49.966;8.342;2022-11-15T15:30:49;7.90;;;4.43;;
61640;SDS011;62201;49.966;8.342;2022-11-15T15:33:15;8.13;;;4.00;;
61640;SDS011;62201;49.966;8.342;2022-11-15T15:35:41;6.50;;;3.20;;
61640;SDS011;62201;49.966;8.342;2022-11-15T15:38:09;11.95;;;3.70;;
61640;SDS011;62201;49.966;8.342;2022-11-15T15:40:37;6.32;;;3.22;;
61640;SDS011;62201;49.966;8.342;2022-11-15T15:43:02;6.72;;;4.05;;
61640;SDS011;62201;49.966;8.342;2022-11-15T15:45:27;7.10;;;3.90;;
61640;SDS011;62201;49.966;8.342;2022-11-15T15:47:54;8.73;;;4.85;;
61640;SDS011;62201;49.966;8.342;2022-11-15T15:50:21;7.25;;;4.22;;
61640;SDS011;62201;49.966;8.342;2022-11-15T15:52:55;5.97;;;3.88;;
61640;SDS011;62201;49.966;8.342;2022-11-15T15:55:22;5.85;;;3.50;;
61640;SDS011;62201;49.966;8.342;2022-11-15T15:57:48;6.57;;;3.38;;
61640;SDS011;62201;49.966;8.342;2022-11-15T16:00:14;7.22;;;3.63;;
61640;SDS011;62201;49.966;8.342;2022-11-15T16:02:40;6.70;;;3.85;;
61640;SDS011;62201;49.966;8.342;2022-11-15T16:05:06;31.98;;;11.10;;
61640;SDS011;62201;49.966;8.342;2022-11-15T16:07:32;21.73;;;9.75;;
61640;SDS011;62201;49.966;8.342;2022-11-15T16:09:58;18.67;;;8.73;;
61640;SDS011;62201;49.966;8.342;2022-11-15T16:12:33;19.30;;;7.72;;
61640;SDS011;62201;49.966;8.342;2022-11-15T16:14:59;18.00;;;7.82;;
61640;SDS011;62201;49.966;8.342;2022-11-15T16:17:33;20.80;;;8.80;;
61640;SDS011;62201;49.966;8.342;2022-11-15T16:20:02;21.48;;;8.20;;
61640;SDS011;62201;49.966;8.342;2022-11-15T16:22:28;17.58;;;7.75;;
61640;SDS011;62201;49.966;8.342;2022-11-15T16:24:54;17.70;;;8.23;;
61640;SDS011;62201;49.966;8.342;2022-11-15T16:27:20;18.55;;;8.50;;
61640;SDS011;62201;49.966;8.342;2022-11-15T16:29:46;22.52;;;8.52;;
61640;SDS011;62201;49.966;8.342;2022-11-15T16:32:12;16.48;;;8.82;;
61640;SDS011;62201;49.966;8.342;2022-11-15T16:34:38;16.73;;;9.52;;
61640;SDS011;62201;49.966;8.342;2022-11-15T16:37:04;13.85;;;8.27;;
61640;SDS011;62201;49.966;8.342;2022-11-15T16:39:29;25.13;;;16.48;;
61640;SDS011;62201;49.966;8.342;2022-11-15T16:41:56;36.45;;;24.45;;
61640;SDS011;62201;49.966;8.342;2022-11-15T16:44:25;47.58;;;34.90;;
61640;SDS011;62201;49.966;8.342;2022-11-15T16:46:51;20.02;;;13.23;;
61640;SDS011;62201;49.966;8.342;2022-11-15T16:49:17;18.27;;;10.95;;
61640;SDS011;62201;49.966;8.342;2022-11-15T16:51:44;12.73;;;8.52;;